Gio-gio — FGE6517 — position and weather

sailwx.info

Track history (hours):
 
Tides and Currents Weather Stations Pressure Air Temp Water Temp Dewpoint Dewpoint Depression Visibility Wind Speed Wind Dir Waves Ship Positions

Gio-gio

Last reported at 2017-Sep-10 13:59 UTC. Time now 2017-Nov-19 18:16 UTC.
Position N 47°28' W 002°32'.
Warning: this ship's position is months out of date.

Length 13 m.

Type: Pleasure craft. MMSI: 227138620.

Date/timePositionNaut miles runAvg speedWind from/ knotsBaromVisibWave heightAir tempDewpointWater temp
2017-Sep-10 13:59N 47°28' W 002°32'4 7.4
2017-Sep-10 13:30N 47°27' W 002°37'4 7.7
2017-Sep-10 13:00N 47°28' W 002°43'4 7.5
2017-Sep-10 12:30N 47°28' W 002°49'4 7.1
2017-Sep-10 12:00N 47°30' W 002°53'3 5.4
2017-Sep-10 11:30N 47°32' W 002°54'0 0.5
2017-Sep-10 10:41N 47°33' W 002°54'0 0.0
2017-Sep-10 10:13N 47°33' W 002°54'0 0.0
2017-Sep-10 09:56N 47°33' W 002°54'0 0.0
2017-Sep-10 09:14N 47°33' W 002°54'0 0.0
2017-Sep-10 08:47N 47°33' W 002°54'0 0.0
2017-Sep-10 08:20N 47°33' W 002°54'0 0.0
2017-Sep-10 07:46N 47°33' W 002°54'0 0.0
2017-Sep-10 03:33N 47°33' W 002°54'0 0.0
2017-Sep-10 03:12N 47°33' W 002°54'0 0.0
2017-Sep-10 02:55N 47°33' W 002°54'0 0.0
2017-Sep-10 02:17N 47°33' W 002°54'0 0.0
2017-Sep-10 00:45N 47°33' W 002°54'0 0.0
2017-Sep-09 23:30N 47°33' W 002°54'0 0.0
2017-Sep-09 22:24N 47°33' W 002°54'0 0.0
2017-Sep-09 21:54N 47°33' W 002°54'0 0.0
2017-Sep-09 21:30N 47°33' W 002°54'0 0.0
2017-Sep-09 21:00N 47°33' W 002°54'0 0.0
2017-Sep-09 20:28N 47°33' W 002°54'0 0.0
2017-Sep-09 19:58N 47°33' W 002°54'0 0.0
2017-Sep-09 18:58N 47°33' W 002°54'0 0.5
2017-Sep-09 18:29N 47°32' W 002°54'1 2.9
2017-Sep-09 18:00N 47°31' W 002°54'3 5.4
2017-Sep-09 17:30N 47°28' W 002°53'3 5.9
2017-Sep-09 17:00N 47°26' W 002°52'  
Track history (hours):
 
Tides and Currents Weather Stations Pressure Air Temp Water Temp Dewpoint Dewpoint Depression Visibility Wind Speed Wind Dir Waves Ship Positions

Gio-gio

Last reported at 2017-Sep-10 13:59 UTC. Time now 2017-Nov-19 18:16 UTC.
Position N 47°28' W 002°32'.
Warning: this ship's position is months out of date.

Length 13 m.

Type: Pleasure craft. MMSI: 227138620.

Date/timePositionNaut miles runAvg speedWind from/ knotsBaromVisibWave heightAir tempDewpointWater temp
2017-Sep-10 13:59N 47°28' W 002°32'4 7.4
2017-Sep-10 13:30N 47°27' W 002°37'4 7.7
2017-Sep-10 13:00N 47°28' W 002°43'4 7.5
2017-Sep-10 12:30N 47°28' W 002°49'4 7.1
2017-Sep-10 12:00N 47°30' W 002°53'3 5.4
2017-Sep-10 11:30N 47°32' W 002°54'0 0.5
2017-Sep-10 10:41N 47°33' W 002°54'0 0.0
2017-Sep-10 10:13N 47°33' W 002°54'0 0.0
2017-Sep-10 09:56N 47°33' W 002°54'0 0.0
2017-Sep-10 09:14N 47°33' W 002°54'0 0.0
2017-Sep-10 08:47N 47°33' W 002°54'0 0.0
2017-Sep-10 08:20N 47°33' W 002°54'0 0.0
2017-Sep-10 07:46N 47°33' W 002°54'0 0.0
2017-Sep-10 03:33N 47°33' W 002°54'0 0.0
2017-Sep-10 03:12N 47°33' W 002°54'0 0.0
2017-Sep-10 02:55N 47°33' W 002°54'0 0.0
2017-Sep-10 02:17N 47°33' W 002°54'0 0.0
2017-Sep-10 00:45N 47°33' W 002°54'0 0.0
2017-Sep-09 23:30N 47°33' W 002°54'0 0.0
2017-Sep-09 22:24N 47°33' W 002°54'0 0.0
2017-Sep-09 21:54N 47°33' W 002°54'0 0.0
2017-Sep-09 21:30N 47°33' W 002°54'0 0.0
2017-Sep-09 21:00N 47°33' W 002°54'0 0.0
2017-Sep-09 20:28N 47°33' W 002°54'0 0.0
2017-Sep-09 19:58N 47°33' W 002°54'0 0.0
2017-Sep-09 18:58N 47°33' W 002°54'0 0.5
2017-Sep-09 18:29N 47°32' W 002°54'1 2.9
2017-Sep-09 18:00N 47°31' W 002°54'3 5.4
2017-Sep-09 17:30N 47°28' W 002°53'3 5.9
2017-Sep-09 17:00N 47°26' W 002°52'  

Dump ship's entire track history